createdAt,value
2023-03-23T00:01:55.392Z,99882.34
2023-03-23T00:04:28.050Z,99887.00
2023-03-23T00:07:03.756Z,99889.66
2023-03-23T00:09:35.634Z,99888.00
2023-03-23T00:12:07.306Z,99883.47
2023-03-23T00:14:42.269Z,99877.84
2023-03-23T00:17:15.459Z,99889.69
2023-03-23T00:19:55.182Z,99883.16
2023-03-23T00:22:27.151Z,99885.38
2023-03-23T00:24:56.877Z,99880.25
2023-03-23T00:27:27.313Z,99875.38
2023-03-23T00:29:58.122Z,99880.50
2023-03-23T00:32:29.717Z,99875.91
2023-03-23T00:34:59.943Z,99863.28
2023-03-23T00:37:32.039Z,99871.88
2023-03-23T00:40:01.608Z,99865.91
2023-03-23T00:42:30.961Z,99868.09
2023-03-23T00:45:01.239Z,99865.38
2023-03-23T00:47:31.669Z,99864.88
2023-03-23T00:50:03.285Z,99872.97
2023-03-23T00:52:35.290Z,99856.72
2023-03-23T00:55:04.660Z,99868.00
2023-03-23T00:57:34.032Z,99857.25
2023-03-23T01:00:06.260Z,99861.91
2023-03-23T01:02:36.891Z,99861.03
2023-03-23T01:05:07.521Z,99854.59
2023-03-23T01:07:39.765Z,99845.47
2023-03-23T01:10:10.609Z,99850.06
2023-03-23T01:12:40.824Z,99841.94
2023-03-23T01:15:11.269Z,99848.34
2023-03-23T01:17:40.696Z,99830.81
2023-03-23T01:20:11.940Z,99815.59
2023-03-23T01:22:44.425Z,99829.63
2023-03-23T01:25:15.534Z,99820.19
2023-03-23T01:27:45.535Z,99823.97
2023-03-23T01:30:16.628Z,99807.53
2023-03-23T01:32:45.999Z,99796.00
2023-03-23T01:35:16.228Z,99802.22
2023-03-23T01:37:48.571Z,99792.50
2023-03-23T01:40:18.945Z,99790.03
2023-03-23T01:42:49.773Z,99778.53
2023-03-23T01:45:29.382Z,99776.13
2023-03-23T01:48:07.043Z,99778.25
2023-03-23T01:50:45.853Z,99781.53
2023-03-23T01:53:18.106Z,99794.44
2023-03-23T01:55:51.353Z,99774.50
2023-03-23T01:58:27.381Z,99780.19
2023-03-23T02:01:00.178Z,99786.34
2023-03-23T02:03:31.973Z,99785.78
2023-03-23T02:06:03.963Z,99773.44
2023-03-23T02:08:36.741Z,99763.72
2023-03-23T02:11:22.038Z,99760.22
2023-03-23T02:13:53.118Z,99761.84
2023-03-23T02:16:37.533Z,99756.75
2023-03-23T02:19:27.528Z,99760.78
2023-03-23T02:22:19.367Z,99762.13
2023-03-23T02:25:14.008Z,99754.88
2023-03-23T02:28:03.929Z,99753.00
2023-03-23T02:30:47.937Z,99751.38
2023-03-23T02:33:34.205Z,99755.97
2023-03-23T02:36:08.930Z,99754.34
2023-03-23T02:38:44.785Z,99757.31
2023-03-23T02:41:17.284Z,99754.31
2023-03-23T02:43:49.983Z,99752.16
2023-03-23T02:46:19.959Z,99753.81
2023-03-23T02:48:54.803Z,99746.25
2023-03-23T02:51:26.780Z,99746.53
2023-03-23T02:53:59.074Z,99751.94
2023-03-23T02:56:31.791Z,99737.59
2023-03-23T02:59:01.341Z,99736.56
2023-03-23T03:01:57.659Z,99732.47
2023-03-23T03:04:32.700Z,99727.66
2023-03-23T03:07:25.770Z,99721.44
2023-03-23T03:09:59.640Z,99720.63
2023-03-23T03:12:38.215Z,99708.78
2023-03-23T03:15:21.914Z,99715.25
2023-03-23T03:17:57.577Z,99727.59
2023-03-23T03:20:30.852Z,99730.56
2023-03-23T03:23:02.726Z,99729.75
2023-03-23T03:25:32.476Z,99708.53
2023-03-23T03:28:04.229Z,99702.56
2023-03-23T03:30:39.079Z,99689.69
2023-03-23T03:33:08.622Z,99691.03
2023-03-23T03:35:45.874Z,99673.84
2023-03-23T03:38:15.714Z,99663.09
2023-03-23T03:40:45.162Z,99694.28
2023-03-23T03:43:14.556Z,99709.31
2023-03-23T03:45:44.464Z,99697.19
2023-03-23T03:48:14.712Z,99680.59
2023-03-23T03:50:47.594Z,99692.13
2023-03-23T03:53:17.105Z,99695.94
2023-03-23T03:56:01.089Z,99697.44
2023-03-23T03:58:32.537Z,99692.09
2023-03-23T04:01:04.680Z,99687.03
2023-03-23T04:03:34.234Z,99694.81
2023-03-23T04:06:07.397Z,99679.47
2023-03-23T04:08:36.948Z,99671.13
2023-03-23T04:11:06.833Z,99659.84
2023-03-23T04:13:56.157Z,99641.78
2023-03-23T04:16:27.290Z,99642.34
2023-03-23T04:18:57.222Z,99644.81
2023-03-23T04:21:29.966Z,99637.28
2023-03-23T04:24:02.105Z,99640.78
2023-03-23T04:26:33.685Z,99642.41
2023-03-23T04:29:04.065Z,99631.34
2023-03-23T04:31:33.459Z,99635.16
2023-03-23T04:34:04.998Z,99649.41
2023-03-23T04:36:56.563Z,99646.69
2023-03-23T04:39:29.946Z,99639.94
2023-03-23T04:42:02.311Z,99632.47
2023-03-23T04:44:33.853Z,99647.78
2023-03-23T04:47:05.131Z,99647.47
2023-03-23T04:49:34.491Z,99631.59
2023-03-23T04:52:06.784Z,99643.22
2023-03-23T04:54:36.402Z,99664.72
2023-03-23T04:57:05.820Z,99660.44
2023-03-23T04:59:35.199Z,99652.63
2023-03-23T05:02:13.850Z,99642.38
2023-03-23T05:04:44.469Z,99631.34
2023-03-23T05:07:17.014Z,99635.91
2023-03-23T05:09:50.860Z,99640.97
2023-03-23T05:12:20.302Z,99635.91
2023-03-23T05:14:50.086Z,99639.44
2023-03-23T05:17:19.832Z,99645.34
2023-03-23T05:19:50.170Z,99632.69
2023-03-23T05:22:22.117Z,99635.13
2023-03-23T05:24:52.715Z,99627.56
2023-03-23T05:27:23.029Z,99635.13
2023-03-23T05:29:52.775Z,99629.97
2023-03-23T05:32:22.453Z,99631.09
2023-03-23T05:34:51.824Z,99635.66
2023-03-23T05:37:23.748Z,99636.78
2023-03-23T05:39:54.353Z,99633.53
2023-03-23T05:42:23.946Z,99639.97
2023-03-23T05:44:54.190Z,99631.94
2023-03-23T05:47:23.586Z,99635.66
2023-03-23T05:49:53.002Z,99628.91
2023-03-23T05:52:25.273Z,99610.69
2023-03-23T05:54:54.713Z,99609.84
2023-03-23T05:57:25.633Z,99620.59
2023-03-23T05:59:54.990Z,99616.03
2023-03-23T06:02:24.424Z,99624.63
2023-03-23T06:04:58.306Z,99627.91
2023-03-23T06:07:30.598Z,99625.78
2023-03-23T06:10:00.125Z,99636.22
2023-03-23T06:12:29.561Z,99635.63
2023-03-23T06:14:59.152Z,99628.13
2023-03-23T06:17:28.916Z,99622.19
2023-03-23T06:19:59.176Z,99621.97
2023-03-23T06:22:31.173Z,99615.50
2023-03-23T06:25:00.578Z,99606.88
2023-03-23T06:27:29.990Z,99615.72
2023-03-23T06:29:59.466Z,99612.28
2023-03-23T06:32:32.152Z,99625.47
2023-03-23T06:35:02.313Z,99635.13
2023-03-23T06:37:34.354Z,99635.91
2023-03-23T06:40:05.357Z,99643.25
2023-03-23T06:42:34.658Z,99641.59
2023-03-23T06:45:05.140Z,99642.13
2023-03-23T06:47:37.271Z,99635.66
2023-03-23T06:50:08.798Z,99645.38
2023-03-23T06:52:46.578Z,99641.31
2023-03-23T06:55:17.100Z,99647.22
2023-03-23T06:57:47.802Z,99638.91
2023-03-23T07:00:17.844Z,99647.72
2023-03-23T07:02:48.014Z,99650.16
2023-03-23T07:05:18.041Z,99646.13
2023-03-23T07:07:49.981Z,99643.91
2023-03-23T07:10:19.553Z,99643.66
2023-03-23T07:12:48.854Z,99629.16
2023-03-23T07:15:18.503Z,99629.72
2023-03-23T07:17:47.813Z,99625.59
2023-03-23T07:20:17.728Z,99638.25
2023-03-23T07:22:47.079Z,99634.22
2023-03-23T07:25:19.538Z,99623.22
2023-03-23T07:27:49.697Z,99638.84
2023-03-23T07:30:19.518Z,99636.66
2023-03-23T07:32:48.925Z,99645.00
2023-03-23T07:35:18.548Z,99649.53
2023-03-23T07:37:49.968Z,99656.84
2023-03-23T07:40:22.552Z,99661.66
2023-03-23T07:42:57.121Z,99656.84
2023-03-23T07:45:27.722Z,99659.56
2023-03-23T07:47:57.042Z,99661.94
2023-03-23T07:50:27.361Z,99664.09
2023-03-23T07:53:06.081Z,99662.50
2023-03-23T07:55:40.014Z,99655.50
2023-03-23T07:58:09.623Z,99666.25
2023-03-23T08:00:40.379Z,99657.69
2023-03-23T08:03:09.956Z,99648.53
2023-03-23T08:05:40.039Z,99657.41
2023-03-23T08:08:09.673Z,99672.75
2023-03-23T08:10:42.030Z,99670.31
2023-03-23T08:13:17.190Z,99672.69
2023-03-23T08:15:47.153Z,99668.63
2023-03-23T08:18:16.544Z,99667.03
2023-03-23T08:20:46.062Z,99682.03
2023-03-23T08:23:16.125Z,99680.13
2023-03-23T08:25:48.618Z,99674.19
2023-03-23T08:28:18.050Z,99666.09
2023-03-23T08:30:47.755Z,99668.19
2023-03-23T08:33:17.062Z,99672.84
2023-03-23T08:35:46.833Z,99669.59
2023-03-23T08:38:16.260Z,99669.53
2023-03-23T08:40:48.678Z,99676.88
2023-03-23T08:43:18.024Z,99671.16
2023-03-23T08:45:47.578Z,99678.16
2023-03-23T08:48:17.671Z,99686.56
2023-03-23T08:50:47.900Z,99671.47
2023-03-23T08:53:17.540Z,99673.59
2023-03-23T08:55:50.127Z,99684.84
2023-03-23T08:58:19.702Z,99686.75
2023-03-23T09:00:51.292Z,99683.22
2023-03-23T09:03:20.933Z,99680.03
2023-03-23T09:05:50.276Z,99674.59
2023-03-23T09:08:19.748Z,99672.41
2023-03-23T09:10:54.529Z,99689.13
2023-03-23T09:13:24.037Z,99718.25
2023-03-23T09:15:55.492Z,99721.56
2023-03-23T09:18:25.801Z,99722.59
2023-03-23T09:20:56.488Z,99728.53
2023-03-23T09:23:26.061Z,99724.78
2023-03-23T09:25:58.224Z,99737.41
2023-03-23T09:28:27.562Z,99747.22
2023-03-23T09:30:58.509Z,99744.75
2023-03-23T09:33:30.077Z,99746.13
2023-03-23T09:35:59.488Z,99733.16
2023-03-23T09:38:28.848Z,99742.09
2023-03-23T09:41:08.126Z,99750.97
2023-03-23T09:43:50.653Z,99756.63
2023-03-23T09:46:33.638Z,99763.63
2023-03-23T09:49:07.850Z,99767.91
2023-03-23T09:51:46.106Z,99768.47
2023-03-23T09:54:22.653Z,99772.25
2023-03-23T09:56:55.516Z,99761.25
2023-03-23T09:59:31.672Z,99750.72
2023-03-23T10:02:18.501Z,99767.16
2023-03-23T10:04:49.595Z,99763.09
2023-03-23T10:07:21.738Z,99769.06
2023-03-23T10:09:54.279Z,99782.22
2023-03-23T10:12:36.101Z,99790.84
2023-03-23T10:15:18.577Z,99800.84
2023-03-23T10:17:57.593Z,99792.19
2023-03-23T10:20:45.682Z,99797.59
2023-03-23T10:23:27.757Z,99795.97
2023-03-23T10:26:08.236Z,99787.88
2023-03-23T10:28:46.849Z,99786.53
2023-03-23T10:31:20.277Z,99780.59
2023-03-23T10:33:52.845Z,99794.31
2023-03-23T10:36:28.002Z,99793.25
2023-03-23T10:39:03.554Z,99803.50
2023-03-23T10:41:32.981Z,99804.03
2023-03-23T10:44:14.004Z,99818.03
2023-03-23T10:46:51.323Z,99816.72
2023-03-23T10:49:24.514Z,99810.50
2023-03-23T10:52:03.458Z,99812.94
2023-03-23T10:54:39.842Z,99819.66
2023-03-23T10:57:25.671Z,99813.75
2023-03-23T11:00:06.731Z,99810.00
2023-03-23T11:02:41.913Z,99808.88
2023-03-23T11:05:21.669Z,99817.78
2023-03-23T11:07:58.124Z,99821.28
2023-03-23T11:10:29.156Z,99822.34
2023-03-23T11:13:01.763Z,99833.38
2023-03-23T11:15:37.428Z,99831.00
2023-03-23T11:18:08.960Z,99829.66
2023-03-23T11:20:43.139Z,99826.66
2023-03-23T11:23:15.201Z,99830.47
2023-03-23T11:26:02.385Z,99827.22
2023-03-23T11:28:35.606Z,99832.06
2023-03-23T11:31:10.413Z,99836.91
2023-03-23T11:33:42.372Z,99847.16
2023-03-23T11:36:13.741Z,99829.91
2023-03-23T11:38:43.086Z,99840.69
2023-03-23T11:41:16.323Z,99840.94
2023-03-23T11:43:49.928Z,99830.19
2023-03-23T11:46:34.020Z,99830.69
2023-03-23T11:49:15.617Z,99828.00
2023-03-23T11:51:52.931Z,99840.94
2023-03-23T11:54:30.650Z,99840.44
2023-03-23T11:57:00.830Z,99839.88
2023-03-23T11:59:34.285Z,99846.59
2023-03-23T12:02:33.466Z,99840.94
2023-03-23T12:05:20.794Z,99836.34
2023-03-23T12:08:01.646Z,99842.28
2023-03-23T12:13:32.349Z,99848.75
2023-03-23T12:16:18.604Z,99854.38
2023-03-23T12:19:00.926Z,99853.31
2023-03-23T12:21:39.191Z,99849.28
2023-03-23T12:24:20.285Z,99851.63
2023-03-23T12:26:54.460Z,99849.19
2023-03-23T12:29:47.368Z,99852.13
2023-03-23T12:32:32.673Z,99842.38
2023-03-23T12:35:18.605Z,99837.31
2023-03-23T12:38:02.078Z,99839.25
2023-03-23T12:40:40.462Z,99853.81
2023-03-23T12:43:23.100Z,99852.72
2023-03-23T12:46:04.861Z,99852.47
2023-03-23T12:48:38.792Z,99840.00
2023-03-23T12:51:19.108Z,99838.38
2023-03-23T12:53:58.502Z,99850.75
2023-03-23T12:56:33.570Z,99828.97
2023-03-23T12:59:10.788Z,99845.94
2023-03-23T13:01:44.693Z,99839.50
2023-03-23T13:04:18.053Z,99841.06
2023-03-23T13:06:52.386Z,99848.91
2023-03-23T13:09:28.033Z,99828.06
2023-03-23T13:12:00.644Z,99839.75
2023-03-23T13:14:40.345Z,99833.25
2023-03-23T13:17:19.408Z,99839.44
2023-03-23T13:20:09.008Z,99837.25
2023-03-23T13:22:46.624Z,99841.03
2023-03-23T13:25:21.368Z,99846.09
2023-03-23T13:28:02.204Z,99846.84
2023-03-23T13:30:32.800Z,99838.97
2023-03-23T13:33:06.913Z,99837.59
2023-03-23T13:35:39.697Z,99837.63
2023-03-23T13:38:25.184Z,99819.03
2023-03-23T13:40:55.859Z,99817.44
2023-03-23T13:43:34.120Z,99819.31
2023-03-23T13:46:13.380Z,99809.75
2023-03-23T13:48:48.214Z,99809.75
2023-03-23T13:51:37.608Z,99808.75
2023-03-23T13:54:23.065Z,99799.91
2023-03-23T13:56:58.388Z,99799.81
2023-03-23T13:59:37.583Z,99805.72
2023-03-23T14:02:33.178Z,99817.91
2023-03-23T14:05:13.697Z,99806.16
2023-03-23T14:08:00.696Z,99820.63
2023-03-23T14:10:39.410Z,99824.69
2023-03-23T14:13:14.676Z,99834.44
2023-03-23T14:15:47.538Z,99823.13
2023-03-23T14:18:19.251Z,99843.25
2023-03-23T14:20:50.577Z,99854.06
2023-03-23T14:23:21.543Z,99831.69
2023-03-23T14:26:08.449Z,99828.63
2023-03-23T14:28:42.250Z,99833.56
2023-03-23T14:31:21.702Z,99833.25
2023-03-23T14:33:52.381Z,99816.13
2023-03-23T14:36:25.139Z,99815.09
2023-03-23T14:39:03.990Z,99802.38
2023-03-23T14:41:38.718Z,99809.13
2023-03-23T14:44:12.570Z,99812.81
2023-03-23T14:46:42.396Z,99822.81
2023-03-23T14:49:18.710Z,99814.19
2023-03-23T14:51:52.814Z,99822.34
2023-03-23T14:54:26.404Z,99815.78
2023-03-23T14:56:59.133Z,99821.22
2023-03-23T14:59:28.462Z,99827.56
2023-03-23T15:01:57.866Z,99822.78
2023-03-23T15:04:30.206Z,99818.72
2023-03-23T15:07:04.276Z,99810.66
2023-03-23T15:09:35.099Z,99811.94
2023-03-23T15:12:08.298Z,99823.00
2023-03-23T15:14:47.451Z,99828.41
2023-03-23T15:17:23.301Z,99828.72
2023-03-23T15:19:53.712Z,99833.00
2023-03-23T15:22:26.786Z,99843.84
2023-03-23T15:25:05.323Z,99842.19
2023-03-23T15:27:43.265Z,99845.78
2023-03-23T15:30:19.445Z,99860.56
2023-03-23T15:32:54.557Z,99874.94
2023-03-23T15:35:26.856Z,99888.16
2023-03-23T15:38:03.488Z,99907.88
2023-03-23T15:40:37.733Z,99921.09
2023-03-23T15:43:20.642Z,99931.72
2023-03-23T15:46:04.320Z,99921.19
2023-03-23T15:48:34.821Z,99920.19
2023-03-23T15:51:07.353Z,99910.94
2023-03-23T15:53:39.144Z,99892.19
2023-03-23T15:56:12.500Z,99896.34
2023-03-23T15:58:45.340Z,99875.03
2023-03-23T16:01:18.470Z,99890.88
2023-03-23T16:03:52.004Z,99881.72
2023-03-23T16:06:25.381Z,99879.59
2023-03-23T16:08:56.018Z,99891.53
2023-03-23T16:11:27.275Z,99899.47
2023-03-23T16:13:59.415Z,99897.47
2023-03-23T16:16:32.540Z,99899.63
2023-03-23T16:19:03.383Z,99897.72
2023-03-23T16:21:32.752Z,99907.38
2023-03-23T16:24:02.102Z,99919.53
2023-03-23T16:26:31.447Z,99912.41
2023-03-23T16:29:13.952Z,99913.97
2023-03-23T16:31:49.730Z,99905.59
2023-03-23T16:34:19.164Z,99910.69
2023-03-23T16:36:48.533Z,99907.97
2023-03-23T16:39:19.228Z,99894.03
2023-03-23T16:41:48.522Z,99872.19
2023-03-23T16:44:20.540Z,99876.47
2023-03-23T16:46:49.831Z,99868.41
2023-03-23T16:49:19.141Z,99864.31
2023-03-23T16:51:49.321Z,99863.88
2023-03-23T16:54:18.651Z,99863.56
2023-03-23T16:56:49.294Z,99861.31
2023-03-23T16:59:21.259Z,99865.03
2023-03-23T17:01:50.599Z,99858.91
2023-03-23T17:04:19.949Z,99859.72
2023-03-23T17:06:51.842Z,99853.53
2023-03-23T17:09:21.261Z,99850.28
2023-03-23T17:11:50.860Z,99852.13
2023-03-23T17:14:23.124Z,99850.78
2023-03-23T17:16:52.529Z,99860.50
2023-03-23T17:19:21.896Z,99875.34
2023-03-23T17:21:51.586Z,99876.19
2023-03-23T17:24:21.806Z,99881.06
2023-03-23T17:26:51.465Z,99875.94
2023-03-23T17:29:24.142Z,99870.72
2023-03-23T17:31:53.728Z,99874.50
2023-03-23T17:34:23.130Z,99882.25
2023-03-23T17:36:52.444Z,99882.78
2023-03-23T17:39:21.888Z,99894.84
2023-03-23T17:41:52.502Z,99902.44
2023-03-23T17:44:24.487Z,99908.66
2023-03-23T17:46:53.853Z,99909.81
2023-03-23T17:49:23.191Z,99921.97
2023-03-23T17:51:52.728Z,99918.19
2023-03-23T17:54:23.185Z,99923.63
2023-03-23T17:56:52.787Z,99928.69
2023-03-23T17:59:25.111Z,99934.44
2023-03-23T18:01:54.752Z,99922.31
2023-03-23T18:04:27.005Z,99927.41
2023-03-23T18:06:59.241Z,99927.41
2023-03-23T18:09:29.311Z,99918.78
2023-03-23T18:11:59.296Z,99921.19
2023-03-23T18:14:31.220Z,99913.91
2023-03-23T18:17:00.740Z,99918.25
2023-03-23T18:19:30.186Z,99931.16
2023-03-23T18:21:59.530Z,99929.56
2023-03-23T18:24:28.872Z,99940.28
2023-03-23T18:27:00.254Z,99938.16
2023-03-23T18:29:32.196Z,99947.56
2023-03-23T18:32:01.535Z,99944.63
2023-03-23T18:34:31.403Z,99942.78
2023-03-23T18:37:00.737Z,99950.28
2023-03-23T18:39:31.773Z,99943.00
2023-03-23T18:42:01.219Z,99951.94
2023-03-23T18:44:33.206Z,99944.41
2023-03-23T18:47:03.718Z,99940.84
2023-03-23T18:49:33.620Z,99922.31
2023-03-23T18:52:03.180Z,99924.72
2023-03-23T18:54:34.855Z,99926.38
2023-03-23T18:57:04.629Z,99936.28
2023-03-23T18:59:37.206Z,99926.34
2023-03-23T19:02:07.380Z,99936.84
2023-03-23T19:04:36.840Z,99940.34
2023-03-23T19:07:06.175Z,99940.34
2023-03-23T19:09:37.660Z,99934.94
2023-03-23T19:12:07.425Z,99945.72
2023-03-23T19:14:42.398Z,99956.78
2023-03-23T19:17:14.310Z,99947.59
2023-03-23T19:19:44.873Z,99951.13
2023-03-23T19:22:14.700Z,99952.75
2023-03-23T19:24:44.000Z,99950.31
2023-03-23T19:27:13.580Z,99946.56
2023-03-23T19:29:45.587Z,99949.53
2023-03-23T19:32:14.932Z,99947.34
2023-03-23T19:34:44.388Z,99939.28
2023-03-23T19:37:13.719Z,99949.78
2023-03-23T19:39:43.353Z,99951.66
2023-03-23T19:42:16.921Z,99948.44
2023-03-23T19:44:49.143Z,99949.78
2023-03-23T19:47:18.517Z,99938.47
2023-03-23T19:49:47.873Z,99940.09
2023-03-23T19:52:18.831Z,99949.53
2023-03-23T19:54:48.583Z,99953.28
2023-03-23T19:57:17.919Z,99944.38
2023-03-23T19:59:49.895Z,99938.75
2023-03-23T20:02:19.536Z,99937.91
2023-03-23T20:04:49.580Z,99931.44
2023-03-23T20:07:20.546Z,99928.50
2023-03-23T20:09:50.702Z,99928.75
2023-03-23T20:12:20.108Z,99923.09
2023-03-23T20:14:52.637Z,99927.13
2023-03-23T20:17:21.962Z,99921.50
2023-03-23T20:19:51.695Z,99934.44
2023-03-23T20:22:21.054Z,99929.03
2023-03-23T20:24:50.385Z,99935.78
2023-03-23T20:27:20.402Z,99922.56
2023-03-23T20:29:53.607Z,99929.84
2023-03-23T20:32:22.928Z,99932.00
2023-03-23T20:34:52.251Z,99913.69
2023-03-23T20:37:24.135Z,99905.63
2023-03-23T20:39:53.468Z,99918.00
2023-03-23T20:42:23.154Z,99901.03
2023-03-23T20:44:55.090Z,99898.88
2023-03-23T20:47:24.453Z,99894.31
2023-03-23T20:49:53.880Z,99904.53
2023-03-23T20:52:23.953Z,99901.31
2023-03-23T20:54:53.482Z,99901.81
2023-03-23T20:57:23.182Z,99899.41
2023-03-23T20:59:55.638Z,99898.34
2023-03-23T21:02:29.933Z,99895.06
2023-03-23T21:05:04.398Z,99894.31
2023-03-23T21:07:33.815Z,99896.19
2023-03-23T21:10:03.121Z,99891.31
2023-03-23T21:12:32.466Z,99895.09
2023-03-23T21:15:05.742Z,99896.19
2023-03-23T21:17:35.112Z,99890.53
2023-03-23T21:20:07.888Z,99901.31
2023-03-23T21:22:37.693Z,99890.28
2023-03-23T21:25:08.685Z,99901.03
2023-03-23T21:27:38.207Z,99901.56
2023-03-23T21:30:13.108Z,99897.78
2023-03-23T21:32:42.466Z,99892.41
2023-03-23T21:35:11.823Z,99889.44
2023-03-23T21:37:41.816Z,99876.25
2023-03-23T21:40:17.715Z,99887.28
2023-03-23T21:42:49.084Z,99890.25
2023-03-23T21:45:21.979Z,99890.28
2023-03-23T21:47:57.928Z,99870.06
2023-03-23T21:50:27.859Z,99878.16
2023-03-23T21:52:57.142Z,99867.91
2023-03-23T21:55:29.831Z,99860.91
2023-03-23T21:57:59.957Z,99854.41
2023-03-23T22:00:32.976Z,99856.88
2023-03-23T22:03:08.658Z,99853.38
2023-03-23T22:05:42.211Z,99850.94
2023-03-23T22:08:11.975Z,99852.56
2023-03-23T22:10:43.634Z,99845.81
2023-03-23T22:13:31.419Z,99848.00
2023-03-23T22:16:05.661Z,99846.13
2023-03-23T22:18:35.689Z,99846.38
2023-03-23T22:21:05.021Z,99851.50
2023-03-23T22:23:34.649Z,99838.56
2023-03-23T22:26:04.454Z,99833.72
2023-03-23T22:28:37.215Z,99825.38
2023-03-23T22:31:12.124Z,99814.91
2023-03-23T22:33:42.499Z,99815.69
2023-03-23T22:36:13.088Z,99813.28
2023-03-23T22:38:44.946Z,99811.41
2023-03-23T22:41:19.534Z,99812.19
2023-03-23T22:43:50.104Z,99795.50
2023-03-23T22:46:22.612Z,99800.06
2023-03-23T22:48:52.300Z,99782.91
2023-03-23T22:51:22.715Z,99789.06
2023-03-23T22:53:52.554Z,99783.16
2023-03-23T22:56:22.689Z,99773.19
2023-03-23T22:58:51.996Z,99770.25
2023-03-23T23:01:25.971Z,99767.03
2023-03-23T23:03:56.080Z,99768.06
2023-03-23T23:06:25.872Z,99763.25
2023-03-23T23:08:55.209Z,99750.59
2023-03-23T23:11:26.273Z,99751.16
2023-03-23T23:13:56.384Z,99749.53
2023-03-23T23:16:28.590Z,99751.41
2023-03-23T23:18:57.964Z,99749.81
2023-03-23T23:21:29.014Z,99749.81
2023-03-23T23:23:58.514Z,99747.91
2023-03-23T23:26:27.969Z,99744.69
2023-03-23T23:28:57.337Z,99736.09
2023-03-23T23:31:33.785Z,99724.00
2023-03-23T23:34:05.041Z,99724.00
2023-03-23T23:36:35.417Z,99727.72
2023-03-23T23:39:06.794Z,99725.59
2023-03-23T23:41:36.820Z,99716.97
2023-03-23T23:44:06.448Z,99713.75
2023-03-23T23:46:38.655Z,99721.00
2023-03-23T23:49:08.127Z,99715.09
2023-03-23T23:51:37.719Z,99713.75
2023-03-23T23:54:07.302Z,99714.28
2023-03-23T23:56:36.772Z,99713.22
2023-03-23T23:59:06.132Z,99713.75
